createdAt,value
2018-10-04T00:00:56.757Z,72.16
2018-10-04T00:01:57.009Z,72.25
2018-10-04T00:02:57.088Z,71.77
2018-10-04T00:03:56.711Z,72.72
2018-10-04T00:04:56.694Z,72.19
2018-10-04T00:05:56.679Z,71.3
2018-10-04T00:06:56.932Z,71.77
2018-10-04T00:07:56.644Z,72.25
2018-10-04T00:08:56.636Z,71.96
2018-10-04T00:09:56.614Z,72.06
2018-10-04T00:10:56.605Z,71.68
2018-10-04T00:11:56.856Z,71.96
2018-10-04T00:12:56.833Z,71.87
2018-10-04T00:13:56.813Z,72.25
2018-10-04T00:14:56.804Z,71.96
2018-10-04T00:15:56.784Z,71.87
2018-10-04T00:16:56.769Z,71.87
2018-10-04T00:17:56.486Z,71.77
2018-10-04T00:18:56.741Z,71.68
2018-10-04T00:19:56.457Z,70.25
2018-10-04T00:20:56.701Z,69.68
2018-10-04T00:21:56.692Z,69.96
2018-10-04T00:22:56.404Z,70.15
2018-10-04T00:23:56.659Z,69.96
2018-10-04T00:24:56.638Z,70.44
2018-10-04T00:25:56.362Z,70.06
2018-10-04T00:26:56.344Z,69.77
2018-10-04T00:27:56.335Z,69.58
2018-10-04T00:28:56.316Z,69.58
2018-10-04T00:29:56.563Z,69.48
2018-10-04T00:30:56.287Z,69.77
2018-10-04T00:31:56.268Z,69.2
2018-10-04T00:32:56.250Z,69.29
2018-10-04T00:33:56.232Z,69.1
2018-10-04T00:34:56.220Z,69.2
2018-10-04T00:35:56.198Z,69.1
2018-10-04T00:36:56.187Z,68.91
2018-10-04T00:37:56.430Z,68.82
2018-10-04T00:38:56.152Z,68.44
2018-10-04T00:39:56.136Z,68.91
2018-10-04T00:40:56.393Z,68.82
2018-10-04T00:41:56.375Z,68.44
2018-10-04T00:42:56.354Z,68.53
2018-10-04T00:43:56.341Z,68.63
2018-10-04T00:44:56.326Z,68.34
2018-10-04T00:45:56.555Z,68.24
2018-10-04T00:46:56.289Z,68.44
2018-10-04T00:47:56.277Z,67.86
2018-10-04T00:48:56.259Z,67.96
2018-10-04T00:49:56.243Z,67.86
2018-10-04T00:50:55.960Z,67.1
2018-10-04T00:51:56.209Z,67.86
2018-10-04T00:52:56.193Z,67.48
2018-10-04T00:53:56.178Z,67.48
2018-10-04T00:54:55.900Z,67.29
2018-10-04T00:55:55.882Z,66.53
2018-10-04T00:56:56.141Z,67.1
2018-10-04T00:57:56.114Z,66.53
2018-10-04T00:58:56.097Z,66.15
2018-10-04T00:59:55.823Z,66.15
2018-10-04T01:00:55.802Z,66.53
2018-10-04T01:01:55.785Z,66.63
2018-10-04T01:02:56.035Z,66.63
2018-10-04T01:03:55.755Z,66.15
2018-10-04T01:04:55.737Z,65.58
2018-10-04T01:05:55.986Z,65.96
2018-10-04T01:06:56.175Z,65.96
2018-10-04T01:07:55.956Z,65.1
2018-10-04T01:08:55.674Z,65.1
2018-10-04T01:09:55.922Z,64.43
2018-10-04T01:10:55.905Z,64.62
2018-10-04T01:11:55.894Z,64.72
2018-10-04T01:12:55.607Z,64.24
2018-10-04T01:13:55.855Z,64.15
2018-10-04T01:14:55.839Z,64.24
2018-10-04T01:15:55.560Z,64.34
2018-10-04T01:16:55.807Z,64.43
2018-10-04T01:17:55.791Z,64.91
2018-10-04T01:18:55.776Z,65
2018-10-04T01:19:55.757Z,64.62
2018-10-04T01:20:55.739Z,64.62
2018-10-04T01:21:55.732Z,64.53
2018-10-04T01:22:55.449Z,64.53
2018-10-04T01:23:55.438Z,64.91
2018-10-04T01:24:55.677Z,64.62
2018-10-04T01:25:55.665Z,64.72
2018-10-04T01:26:55.386Z,65.39
2018-10-04T01:27:55.628Z,64.72
2018-10-04T01:28:55.614Z,64.18
2018-10-04T01:29:55.600Z,64.24
2018-10-04T01:30:55.318Z,64.62
2018-10-04T01:31:55.563Z,64.43
2018-10-04T01:32:55.284Z,64.81
2018-10-04T01:33:55.270Z,64.81
2018-10-04T01:34:55.526Z,64.91
2018-10-04T01:35:55.236Z,64.53
2018-10-04T01:36:55.497Z,64.56
2018-10-04T01:37:55.203Z,64.47
2018-10-04T01:38:55.453Z,64.72
2018-10-04T01:39:55.441Z,64.72
2018-10-04T01:40:55.426Z,63.96
2018-10-04T01:41:55.400Z,64.05
2018-10-04T01:42:55.387Z,64.24
2018-10-04T01:43:55.109Z,64.47
2018-10-04T01:44:55.091Z,63.96
2018-10-04T01:45:55.341Z,64.24
2018-10-04T01:46:55.321Z,64.34
2018-10-04T01:47:55.043Z,63.89
2018-10-04T01:48:55.026Z,63.7
2018-10-04T01:49:55.010Z,63.42
2018-10-04T01:50:55.259Z,63.2
2018-10-04T01:51:55.243Z,62.65
2018-10-04T01:52:55.228Z,62.91
2018-10-04T01:53:55.211Z,63.6
2018-10-04T01:54:54.930Z,63.89
2018-10-04T01:55:54.918Z,62.75
2018-10-04T01:56:55.161Z,63.51
2018-10-04T01:57:55.148Z,63.8
2018-10-04T01:58:54.864Z,63.7
2018-10-04T01:59:55.114Z,63.13
2018-10-04T02:00:55.100Z,63.7
2018-10-04T02:01:54.817Z,63.96
2018-10-04T02:02:54.808Z,62.72
2018-10-04T02:03:55.054Z,63.13
2018-10-04T02:04:55.040Z,62.72
2018-10-04T02:05:54.761Z,62.75
2018-10-04T02:06:54.742Z,62.72
2018-10-04T02:07:54.989Z,62.62
2018-10-04T02:08:54.970Z,62.62
2018-10-04T02:09:54.955Z,62.81
2018-10-04T02:10:54.940Z,61.67
2018-10-04T02:11:54.719Z,62.15
2018-10-04T02:12:54.909Z,61.86
2018-10-04T02:13:54.630Z,62.15
2018-10-04T02:14:54.617Z,62.05
2018-10-04T02:15:54.600Z,62.18
2018-10-04T02:16:54.849Z,61.7
2018-10-04T02:17:54.833Z,61.86
2018-10-04T02:18:54.814Z,62.37
2018-10-04T02:19:54.800Z,61.57
2018-10-04T02:20:54.515Z,61.38
2018-10-04T02:21:54.551Z,61.57
2018-10-04T02:22:54.753Z,61.67
2018-10-04T02:23:54.468Z,61.51
2018-10-04T02:24:54.451Z,60.81
2018-10-04T02:25:54.698Z,61.04
2018-10-04T02:26:54.683Z,61.19
2018-10-04T02:27:54.668Z,61.22
2018-10-04T02:28:54.387Z,61.32
2018-10-04T02:29:54.637Z,61.57
2018-10-04T02:30:54.620Z,61.6
2018-10-04T02:31:54.353Z,61.57
2018-10-04T02:32:54.585Z,61.8
2018-10-04T02:33:54.571Z,61.19
2018-10-04T02:34:54.292Z,60.84
2018-10-04T02:35:54.564Z,61.8
2018-10-04T02:36:54.532Z,61.32
2018-10-04T02:37:54.508Z,61.7
2018-10-04T02:38:54.491Z,62.05
2018-10-04T02:39:54.475Z,62.27
2018-10-04T02:40:54.195Z,61.99
2018-10-04T02:41:54.180Z,62.37
2018-10-04T02:42:54.165Z,61.13
2018-10-04T02:43:54.151Z,60.91
2018-10-04T02:44:54.397Z,60.94
2018-10-04T02:45:54.383Z,61.22
2018-10-04T02:46:54.360Z,61.22
2018-10-04T02:47:54.401Z,61.6
2018-10-04T02:48:54.678Z,61.32
2018-10-04T02:49:54.315Z,61.04
2018-10-04T02:50:54.039Z,60.94
2018-10-04T02:51:54.017Z,61.04
2018-10-04T02:52:54.268Z,60.75
2018-10-04T02:53:54.271Z,60.46
2018-10-04T02:54:54.233Z,59.89
2018-10-04T02:55:53.953Z,60.36
2018-10-04T02:56:54.203Z,60.65
2018-10-04T02:57:54.201Z,60.55
2018-10-04T02:58:54.181Z,60.65
2018-10-04T02:59:54.152Z,60.36
2018-10-04T03:00:54.139Z,59.99
2018-10-04T03:01:54.131Z,59.89
2018-10-04T03:02:54.106Z,59.89
2018-10-04T03:03:53.824Z,59.7
2018-10-04T03:04:54.072Z,59.6
2018-10-04T03:05:54.062Z,59.89
2018-10-04T03:06:53.777Z,59.99
2018-10-04T03:07:54.225Z,60.46
2018-10-04T03:08:54.005Z,60.65
2018-10-04T03:09:53.994Z,59.99
2018-10-04T03:10:53.713Z,59.89
2018-10-04T03:11:53.694Z,60.17
2018-10-04T03:12:53.950Z,60.17
2018-10-04T03:13:53.933Z,60.17
2018-10-04T03:14:53.915Z,60.36
2018-10-04T03:15:53.630Z,60.36
2018-10-04T03:16:53.881Z,61.13
2018-10-04T03:17:53.941Z,61.13
2018-10-04T03:18:53.585Z,60.55
2018-10-04T03:19:53.940Z,60.94
2018-10-04T03:20:53.822Z,60.94
2018-10-04T03:21:53.799Z,60.36
2018-10-04T03:22:53.785Z,60.94
2018-10-04T03:23:53.508Z,61.41
2018-10-04T03:24:53.487Z,60.94
2018-10-04T03:25:53.738Z,60.94
2018-10-04T03:26:53.458Z,61.13
2018-10-04T03:27:53.702Z,61.22
2018-10-04T03:28:53.694Z,60.36
2018-10-04T03:29:53.789Z,61.22
2018-10-04T03:30:53.664Z,60.94
2018-10-04T03:31:53.641Z,59.89
2018-10-04T03:32:53.631Z,59.89
2018-10-04T03:33:53.614Z,60.46
2018-10-04T03:34:53.594Z,60.27
2018-10-04T03:35:53.578Z,60.65
2018-10-04T03:36:53.563Z,59.99
2018-10-04T03:37:53.546Z,60.36
2018-10-04T03:38:53.527Z,60.36
2018-10-04T03:39:53.515Z,60.36
2018-10-04T03:40:53.234Z,60.46
2018-10-04T03:41:53.496Z,60.55
2018-10-04T03:42:53.463Z,60.27
2018-10-04T03:43:53.462Z,60.55
2018-10-04T03:44:53.444Z,59.99
2018-10-04T03:45:53.416Z,59.99
2018-10-04T03:46:53.413Z,60.46
2018-10-04T03:47:53.387Z,59.99
2018-10-04T03:48:53.375Z,60.55
2018-10-04T03:49:53.357Z,60.17
2018-10-04T03:50:53.073Z,60.08
2018-10-04T03:51:53.063Z,59.99
2018-10-04T03:52:53.042Z,60.08
2018-10-04T03:53:53.294Z,59.79
2018-10-04T03:54:53.283Z,60.27
2018-10-04T03:55:53.263Z,60.55
2018-10-04T03:56:53.249Z,60.36
2018-10-04T03:57:52.984Z,59.79
2018-10-04T03:58:52.957Z,60.17
2018-10-04T03:59:52.939Z,60.65
2018-10-04T04:00:52.919Z,60.55
2018-10-04T04:01:53.170Z,60.27
2018-10-04T04:02:52.886Z,59.7
2018-10-04T04:03:52.931Z,59.89
2018-10-04T04:04:53.121Z,59.99
2018-10-04T04:05:53.105Z,60.36
2018-10-04T04:06:52.824Z,59.79
2018-10-04T04:07:52.804Z,59.79
2018-10-04T04:08:53.055Z,59.79
2018-10-04T04:09:52.779Z,59.99
2018-10-04T04:10:52.764Z,59.79
2018-10-04T04:11:52.798Z,59.7
2018-10-04T04:12:52.724Z,59.6
2018-10-04T04:13:52.979Z,60.08
2018-10-04T04:14:52.964Z,59.7
2018-10-04T04:15:52.944Z,59.99
2018-10-04T04:16:52.665Z,59.89
2018-10-04T04:17:52.923Z,59.22
2018-10-04T04:18:52.898Z,59.12
2018-10-04T04:19:52.884Z,59.22
2018-10-04T04:20:52.866Z,58.65
2018-10-04T04:21:52.853Z,59.03
2018-10-04T04:22:52.838Z,58.65
2018-10-04T04:23:52.555Z,58.55
2018-10-04T04:24:52.809Z,58.17
2018-10-04T04:25:52.519Z,57.79
2018-10-04T04:26:52.769Z,58.17
2018-10-04T04:27:52.489Z,57.31
2018-10-04T04:28:52.476Z,57.22
2018-10-04T04:29:52.460Z,57.41
2018-10-04T04:30:52.496Z,57.5
2018-10-04T04:31:52.768Z,57.31
2018-10-04T04:32:52.726Z,57.31
2018-10-04T04:33:52.664Z,57.12
2018-10-04T04:34:52.679Z,57.41
2018-10-04T04:35:52.627Z,57.22
2018-10-04T04:36:52.614Z,57.31
2018-10-04T04:37:52.595Z,57.03
2018-10-04T04:38:52.579Z,56.65
2018-10-04T04:39:52.563Z,57.03
2018-10-04T04:40:52.671Z,56.93
2018-10-04T04:41:52.267Z,56.65
2018-10-04T04:42:52.530Z,56.46
2018-10-04T04:43:52.240Z,56.46
2018-10-04T04:44:52.491Z,56.36
2018-10-04T04:45:52.473Z,56.46
2018-10-04T04:46:52.937Z,56.46
2018-10-04T04:47:52.441Z,56.65
2018-10-04T04:48:52.427Z,56.55
2018-10-04T04:49:52.142Z,56.17
2018-10-04T04:50:52.124Z,56.07
2018-10-04T04:51:52.109Z,55.88
2018-10-04T04:52:52.637Z,56.17
2018-10-04T04:53:52.082Z,56.17
2018-10-04T04:54:52.326Z,56.36
2018-10-04T04:55:52.306Z,56.74
2018-10-04T04:56:52.030Z,57.12
2018-10-04T04:57:52.016Z,56.87
2018-10-04T04:58:51.994Z,57.12
2018-10-04T04:59:52.241Z,57.53
2018-10-04T05:00:51.963Z,57.43
2018-10-04T05:01:51.946Z,57.6
2018-10-04T05:02:52.196Z,57.43
2018-10-04T05:03:51.914Z,57.43
2018-10-04T05:04:52.171Z,57.53
2018-10-04T05:05:51.888Z,57.63
2018-10-04T05:06:52.138Z,57.43
2018-10-04T05:07:52.321Z,57.43
2018-10-04T05:08:52.103Z,57.82
2018-10-04T05:09:51.820Z,56.87
2018-10-04T05:10:52.071Z,57.43
2018-10-04T05:11:51.801Z,57.53
2018-10-04T05:12:51.772Z,57.53
2018-10-04T05:13:52.024Z,57.24
2018-10-04T05:14:52.013Z,57.24
2018-10-04T05:15:52.057Z,57.63
2018-10-04T05:16:51.710Z,57.63
2018-10-04T05:17:51.959Z,57.72
2018-10-04T05:18:51.680Z,58.2
2018-10-04T05:19:51.926Z,57.63
2018-10-04T05:20:51.924Z,58.29
2018-10-04T05:21:51.899Z,57.53
2018-10-04T05:22:51.618Z,57.34
2018-10-04T05:23:51.601Z,58.39
2018-10-04T05:24:51.582Z,57.82
2018-10-04T05:25:51.567Z,58.39
2018-10-04T05:26:51.552Z,57.82
2018-10-04T05:27:51.596Z,57.24
2018-10-04T05:28:51.797Z,57.06
2018-10-04T05:29:51.507Z,57.43
2018-10-04T05:30:51.491Z,57.92
2018-10-04T05:31:51.742Z,57.43
2018-10-04T05:32:51.461Z,57.53
2018-10-04T05:33:51.441Z,58.39
2018-10-04T05:34:51.690Z,57.82
2018-10-04T05:35:51.673Z,57.92
2018-10-04T05:36:51.754Z,57.82
2018-10-04T05:37:51.380Z,57.72
2018-10-04T05:38:51.629Z,57.63
2018-10-04T05:39:51.348Z,57.43
2018-10-04T05:40:51.336Z,57.92
2018-10-04T05:41:51.313Z,57.63
2018-10-04T05:42:51.566Z,57.72
2018-10-04T05:43:51.547Z,57.63
2018-10-04T05:44:51.614Z,57.53
2018-10-04T05:45:51.253Z,57.82
2018-10-04T05:46:51.501Z,58.01
2018-10-04T05:47:51.225Z,58.11
2018-10-04T05:48:51.203Z,58.01
2018-10-04T05:49:51.456Z,57.82
2018-10-04T05:50:51.440Z,57.72
2018-10-04T05:51:51.155Z,57.63
2018-10-04T05:52:51.529Z,57.72
2018-10-04T05:53:51.389Z,57.82
2018-10-04T05:54:51.112Z,58.01
2018-10-04T05:55:51.095Z,57.92
2018-10-04T05:56:51.347Z,58.2
2018-10-04T05:57:51.327Z,57.82
2018-10-04T05:58:51.350Z,58.2
2018-10-04T05:59:51.299Z,57.82
2018-10-04T06:00:51.016Z,57.82
2018-10-04T06:01:51.003Z,57.82
2018-10-04T06:02:50.986Z,57.92
2018-10-04T06:03:51.232Z,58.39
2018-10-04T06:04:51.299Z,58.11
2018-10-04T06:05:51.205Z,58.11
2018-10-04T06:06:50.927Z,58.68
2018-10-04T06:07:50.907Z,58.2
2018-10-04T06:08:50.889Z,58.01
2018-10-04T06:09:50.876Z,58.2
2018-10-04T06:10:50.857Z,58.68
2018-10-04T06:11:51.103Z,59.25
2018-10-04T06:12:50.828Z,59.06
2018-10-04T06:13:51.082Z,59.06
2018-10-04T06:14:51.199Z,59.25
2018-10-04T06:15:51.044Z,59.16
2018-10-04T06:16:51.033Z,59.25
2018-10-04T06:17:50.749Z,59.25
2018-10-04T06:18:50.737Z,58.77
2018-10-04T06:19:50.721Z,58.87
2018-10-04T06:20:50.705Z,59.06
2018-10-04T06:21:51.082Z,59.25
2018-10-04T06:22:50.946Z,59.44
2018-10-04T06:23:50.923Z,59.63
2018-10-04T06:24:50.656Z,59.63
2018-10-04T06:25:50.638Z,60.02
2018-10-04T06:26:50.876Z,59.73
2018-10-04T06:27:50.598Z,60.3
2018-10-04T06:28:50.869Z,60.02
2018-10-04T06:29:50.565Z,60.68
2018-10-04T06:30:50.815Z,60.68
2018-10-04T06:31:50.796Z,59.95
2018-10-04T06:32:50.785Z,60.02
2018-10-04T06:33:50.765Z,60.71
2018-10-04T06:34:50.760Z,60.49
2018-10-04T06:35:50.746Z,60.87
2018-10-04T06:36:50.719Z,61.29
2018-10-04T06:37:50.701Z,61.16
2018-10-04T06:38:50.423Z,61
2018-10-04T06:39:50.729Z,61.19
2018-10-04T06:40:50.403Z,61.95
2018-10-04T06:41:50.695Z,61.86
2018-10-04T06:42:50.366Z,62.52
2018-10-04T06:43:50.349Z,62.05
2018-10-04T06:44:50.597Z,62.24
2018-10-04T06:45:50.320Z,62.05
2018-10-04T06:46:50.305Z,62.62
2018-10-04T06:47:50.289Z,62.91
2018-10-04T06:48:50.534Z,62.91
2018-10-04T06:49:50.521Z,62.81
2018-10-04T06:50:50.238Z,62.81
2018-10-04T06:51:50.228Z,61.95
2018-10-04T06:52:50.214Z,62.15
2018-10-04T06:53:50.468Z,62.05
2018-10-04T06:54:50.449Z,62.71
2018-10-04T06:55:50.447Z,62.71
2018-10-04T06:56:50.418Z,62.24
2018-10-04T06:57:50.592Z,62.62
2018-10-04T06:58:50.388Z,62.91
2018-10-04T06:59:50.102Z,63.86
2018-10-04T07:00:50.096Z,63.67
2018-10-04T07:01:50.072Z,63.39
2018-10-04T07:02:50.326Z,63.2
2018-10-04T07:03:50.385Z,63.86
2018-10-04T07:04:50.297Z,63.29
2018-10-04T07:05:50.278Z,63.1
2018-10-04T07:06:50.260Z,62.71
2018-10-04T07:07:50.446Z,63.2
2018-10-04T07:08:50.280Z,63.29
2018-10-04T07:09:50.219Z,64.53
2018-10-04T07:10:50.200Z,64.34
2018-10-04T07:11:49.924Z,64.34
2018-10-04T07:12:49.909Z,64.34
2018-10-04T07:13:50.164Z,64.53
2018-10-04T07:14:50.143Z,64.53
2018-10-04T07:15:49.861Z,63.86
2018-10-04T07:16:49.841Z,63.86
2018-10-04T07:17:50.101Z,63.39
2018-10-04T07:18:49.814Z,64.53
2018-10-04T07:19:49.799Z,64.05
2018-10-04T07:20:49.802Z,64.05
2018-10-04T07:21:49.768Z,64.53
2018-10-04T07:22:49.753Z,64.05
2018-10-04T07:23:49.738Z,64.15
2018-10-04T07:24:49.991Z,63.86
2018-10-04T07:25:49.972Z,64.15
2018-10-04T07:26:49.692Z,63.96
2018-10-04T07:27:49.679Z,64.25
2018-10-04T07:28:49.932Z,64.15
2018-10-04T07:29:49.910Z,64.72
2018-10-04T07:30:49.632Z,64.15
2018-10-04T07:31:50.092Z,63.86
2018-10-04T07:32:49.604Z,64.25
2018-10-04T07:33:49.850Z,63.76
2018-10-04T07:34:49.588Z,64.62
2018-10-04T07:35:49.558Z,64.62
2018-10-04T07:36:49.805Z,64.91
2018-10-04T07:37:49.787Z,64.72
2018-10-04T07:38:49.777Z,64.43
2018-10-04T07:39:49.759Z,64.05
2018-10-04T07:40:49.742Z,64.62
2018-10-04T07:41:49.516Z,64.34
2018-10-04T07:42:49.870Z,64.62
2018-10-04T07:43:49.699Z,64.81
2018-10-04T07:44:49.418Z,64.34
2018-10-04T07:45:49.406Z,64.43
2018-10-04T07:46:49.654Z,64.94
2018-10-04T07:47:49.375Z,64.72
2018-10-04T07:48:49.358Z,64.62
2018-10-04T07:49:49.347Z,64.81
2018-10-04T07:50:49.325Z,64.62
2018-10-04T07:51:49.574Z,64.72
2018-10-04T07:52:49.564Z,64.72
2018-10-04T07:53:49.549Z,65.01
2018-10-04T07:54:49.534Z,64.34
2018-10-04T07:55:49.516Z,64.75
2018-10-04T07:56:49.235Z,64.65
2018-10-04T07:57:49.486Z,65.04
2018-10-04T07:58:49.204Z,65.23
2018-10-04T07:59:49.193Z,66.09
2018-10-04T08:00:49.487Z,65.14
2018-10-04T08:01:49.164Z,65.77
2018-10-04T08:02:49.146Z,65.71
2018-10-04T08:03:49.134Z,65.9
2018-10-04T08:04:49.388Z,65.9
2018-10-04T08:05:49.718Z,66.19
2018-10-04T08:06:49.113Z,66.47
2018-10-04T08:07:49.337Z,66.76
2018-10-04T08:08:49.060Z,66.38
2018-10-04T08:09:49.313Z,66.56
2018-10-04T08:10:49.295Z,66.38
2018-10-04T08:11:49.275Z,68
2018-10-04T08:12:48.998Z,67.43
2018-10-04T08:13:49.248Z,67.24
2018-10-04T08:14:49.240Z,67.91
2018-10-04T08:15:48.954Z,68.1
2018-10-04T08:16:49.202Z,68.1
2018-10-04T08:17:48.924Z,67.43
2018-10-04T08:18:48.911Z,67.81
2018-10-04T08:19:49.161Z,67.24
2018-10-04T08:20:48.879Z,67.14
2018-10-04T08:21:48.868Z,67.81
2018-10-04T08:22:49.114Z,68.57
2018-10-04T08:23:49.105Z,68.29
2018-10-04T08:24:49.086Z,68.1
2018-10-04T08:25:49.069Z,68
2018-10-04T08:26:48.803Z,68.57
2018-10-04T08:27:48.784Z,68.19
2018-10-04T08:28:49.026Z,68.32
2018-10-04T08:29:48.746Z,69.24
2018-10-04T08:30:48.734Z,68.51
2018-10-04T08:31:48.721Z,68.32
2018-10-04T08:32:48.974Z,69.18
2018-10-04T08:33:48.953Z,69.09
2018-10-04T08:34:48.677Z,68.7
2018-10-04T08:35:48.923Z,68.99
2018-10-04T08:36:48.644Z,70.04
2018-10-04T08:37:48.893Z,69.95
2018-10-04T08:38:48.885Z,70.04
2018-10-04T08:39:48.920Z,69.76
2018-10-04T08:40:48.851Z,69.27
2018-10-04T08:41:48.569Z,69.76
2018-10-04T08:42:48.559Z,68.99
2018-10-04T08:43:48.544Z,70.04
2018-10-04T08:44:48.796Z,69.95
2018-10-04T08:45:48.779Z,69.47
2018-10-04T08:46:48.767Z,69.66
2018-10-04T08:47:48.484Z,70.33
2018-10-04T08:48:48.733Z,70.14
2018-10-04T08:49:48.460Z,70.23
2018-10-04T08:50:48.441Z,70.52
2018-10-04T08:51:48.690Z,70.9
2018-10-04T08:52:48.677Z,70.61
2018-10-04T08:53:48.399Z,70.04
2018-10-04T08:54:48.646Z,69.76
2018-10-04T08:55:48.632Z,68.99
2018-10-04T08:56:48.354Z,68.99
2018-10-04T08:57:48.601Z,70.33
2018-10-04T08:58:48.326Z,70.14
2018-10-04T08:59:48.315Z,70.42
2018-10-04T09:00:48.560Z,70.9
2018-10-04T09:01:48.545Z,71.19
2018-10-04T09:02:48.267Z,70.9
2018-10-04T09:03:48.258Z,70.42
2018-10-04T09:04:48.502Z,70.23
2018-10-04T09:05:48.501Z,70.23
2018-10-04T09:06:48.209Z,69.66
2018-10-04T09:07:48.471Z,69.85
2018-10-04T09:08:48.444Z,70.71
2018-10-04T09:09:48.430Z,71.28
2018-10-04T09:10:48.423Z,70.9
2018-10-04T09:11:48.405Z,70.9
2018-10-04T09:12:48.389Z,71.13
2018-10-04T09:13:48.372Z,70.84
2018-10-04T09:14:48.096Z,71.19
2018-10-04T09:15:48.082Z,70.84
2018-10-04T09:16:48.336Z,70.9
2018-10-04T09:17:48.322Z,71.03
2018-10-04T09:18:48.303Z,70.56
2018-10-04T09:19:48.025Z,71.03
2018-10-04T09:20:48.008Z,71.61
2018-10-04T09:21:48.257Z,71.61
2018-10-04T09:22:47.979Z,71.89
2018-10-04T09:23:48.229Z,71.99
2018-10-04T09:24:47.950Z,72.85
2018-10-04T09:25:48.218Z,72.18
2018-10-04T09:26:47.924Z,71.7
2018-10-04T09:27:47.910Z,71.99
2018-10-04T09:28:48.169Z,72.75
2018-10-04T09:29:48.145Z,73.23
2018-10-04T09:30:47.868Z,71.13
2018-10-04T09:31:47.854Z,72.66
2018-10-04T09:32:47.839Z,72.47
2018-10-04T09:33:48.138Z,72.28
2018-10-04T09:34:48.073Z,72.66
2018-10-04T09:35:48.062Z,72.75
2018-10-04T09:36:48.044Z,72.37
2018-10-04T09:37:47.773Z,72.94
2018-10-04T09:38:48.025Z,72.56
2018-10-04T09:39:48.007Z,73.04
2018-10-04T09:40:47.993Z,72.75
2018-10-04T09:41:47.979Z,72.18
2018-10-04T09:42:47.968Z,72.08
2018-10-04T09:43:47.956Z,72.66
2018-10-04T09:44:47.946Z,73.04
2018-10-04T09:45:47.923Z,73.61
2018-10-04T09:46:47.907Z,73.14
2018-10-04T09:47:47.897Z,73.99
2018-10-04T09:48:47.877Z,73.71
2018-10-04T09:49:47.869Z,72.94
2018-10-04T09:50:47.855Z,72.98
2018-10-04T09:51:47.840Z,73.04
2018-10-04T09:52:47.828Z,73.94
2018-10-04T09:53:47.979Z,74.22
2018-10-04T09:54:47.796Z,74.9
2018-10-04T09:55:47.515Z,73.75
2018-10-04T09:56:47.766Z,74.22
2018-10-04T09:57:47.760Z,74.41
2018-10-04T09:58:47.477Z,74.8
2018-10-04T09:59:47.799Z,74.9
2018-10-04T10:00:47.447Z,74.13
2018-10-04T10:01:47.696Z,74.7
2018-10-04T10:02:47.418Z,75.18
2018-10-04T10:03:47.416Z,74.9
2018-10-04T10:04:47.661Z,74.9
2018-10-04T10:05:47.650Z,75.95
2018-10-04T10:06:47.366Z,75.76
2018-10-04T10:07:47.619Z,74.45
2018-10-04T10:08:47.600Z,77.13
2018-10-04T10:09:47.596Z,77.9
2018-10-04T10:10:47.576Z,79.91
2018-10-04T10:11:47.742Z,80.38
2018-10-04T10:12:47.286Z,81.44
2018-10-04T10:13:47.275Z,82.82
2018-10-04T10:14:47.522Z,82.24
2018-10-04T10:15:47.511Z,83.3
2018-10-04T10:16:47.497Z,85.31
2018-10-04T10:17:47.483Z,84.92
2018-10-04T10:18:47.471Z,85.31
2018-10-04T10:19:47.463Z,86.17
2018-10-04T10:20:47.443Z,84.74
2018-10-04T10:21:47.169Z,84.26
2018-10-04T10:22:47.424Z,87.23
2018-10-04T10:23:47.408Z,86.69
2018-10-04T10:24:47.400Z,87.08
2018-10-04T10:25:47.116Z,88.61
2018-10-04T10:26:47.369Z,88.32
2018-10-04T10:27:47.093Z,88.32
2018-10-04T10:28:47.350Z,87.17
2018-10-04T10:29:47.068Z,89.28
2018-10-04T10:30:47.325Z,89.37
2018-10-04T10:31:47.307Z,90.23
2018-10-04T10:32:47.298Z,89.95
2018-10-04T10:33:47.280Z,90.43
2018-10-04T10:34:47.005Z,89.37
2018-10-04T10:35:47.259Z,89.37
2018-10-04T10:36:47.244Z,89.76
2018-10-04T10:37:46.971Z,88.51
2018-10-04T10:38:47.219Z,91.58
2018-10-04T10:39:46.993Z,91.49
2018-10-04T10:40:47.206Z,92.73
2018-10-04T10:41:46.921Z,93.11
2018-10-04T10:42:47.172Z,92.82
2018-10-04T10:43:47.161Z,90.62
2018-10-04T10:44:47.154Z,92.15
2018-10-04T10:45:46.870Z,92.92
2018-10-04T10:46:47.128Z,93.35
2018-10-04T10:47:46.849Z,94.5
2018-10-04T10:48:46.837Z,94.12
2018-10-04T10:49:47.089Z,94.4
2018-10-04T10:50:47.082Z,93.73
2018-10-04T10:51:47.078Z,94.12
2018-10-04T10:52:46.790Z,95.36
2018-10-04T10:53:46.780Z,96.75
2018-10-04T10:54:47.029Z,96.08
2018-10-04T10:55:47.025Z,96.75
2018-10-04T10:56:46.743Z,96.37
2018-10-04T10:57:46.995Z,96.94
2018-10-04T10:58:46.984Z,95.21
2018-10-04T10:59:46.712Z,98.77
2018-10-04T11:00:46.964Z,98.86
2018-10-04T11:01:46.952Z,98.96
2018-10-04T11:02:46.948Z,99.99
2018-10-04T11:03:46.932Z,99.99
2018-10-04T11:04:46.654Z,99.99
2018-10-04T11:05:46.906Z,99.99
2018-10-04T11:06:46.894Z,99.99
2018-10-04T11:07:47.088Z,99.99
2018-10-04T11:08:46.610Z,99.99
2018-10-04T11:09:46.602Z,99.99
2018-10-04T11:10:46.584Z,99.99
2018-10-04T11:11:46.578Z,99.99
2018-10-04T11:12:46.832Z,99.99
2018-10-04T11:13:46.556Z,99.99
2018-10-04T11:14:46.548Z,99.99
2018-10-04T11:15:46.535Z,99.99
2018-10-04T11:16:46.783Z,99.99
2018-10-04T11:17:46.900Z,99.99
2018-10-04T11:18:46.500Z,99.99
2018-10-04T11:19:46.490Z,99.99
2018-10-04T11:20:46.745Z,99.99
2018-10-04T11:21:46.474Z,99.99
2018-10-04T11:22:46.456Z,99.99
2018-10-04T11:23:46.454Z,99.99
2018-10-04T11:24:46.438Z,99.99
2018-10-04T11:25:46.697Z,99.99
2018-10-04T11:26:46.691Z,99.99
2018-10-04T11:27:46.672Z,99.99
2018-10-04T11:28:46.399Z,99.99
2018-10-04T11:29:46.388Z,99.99
2018-10-04T11:30:46.376Z,99.99
2018-10-04T11:31:46.364Z,99.99
2018-10-04T11:32:46.627Z,99.99
2018-10-04T11:33:46.609Z,99.99
2018-10-04T11:34:46.601Z,99.99
2018-10-04T11:35:46.589Z,99.99
2018-10-04T11:36:46.578Z,99.99
2018-10-04T11:37:46.304Z,99.99
2018-10-04T11:38:46.298Z,99.99
2018-10-04T11:39:46.549Z,99.99
2018-10-04T11:40:46.549Z,99.99
2018-10-04T11:41:46.528Z,99.99
2018-10-04T11:42:46.254Z,99.99
2018-10-04T11:43:46.515Z,99.99
2018-10-04T11:44:46.511Z,99.99
2018-10-04T11:45:46.229Z,99.99
2018-10-04T11:46:46.491Z,99.99
2018-10-04T11:47:46.477Z,99.99
2018-10-04T11:48:46.207Z,99.99
2018-10-04T11:49:46.464Z,99.99
2018-10-04T11:50:46.447Z,99.99
2018-10-04T11:51:46.174Z,99.99
2018-10-04T11:52:46.432Z,99.99
2018-10-04T11:53:46.425Z,99.99
2018-10-04T11:54:46.716Z,99.99
2018-10-04T11:55:46.398Z,99.99
2018-10-04T11:56:46.575Z,99.99
2018-10-04T11:57:46.115Z,99.99
2018-10-04T11:58:46.368Z,99.99
2018-10-04T11:59:46.094Z,99.99
2018-10-04T12:00:46.084Z,99.99
2018-10-04T12:01:46.078Z,99.99
2018-10-04T12:02:46.066Z,99.99
2018-10-04T12:03:46.055Z,99.99
2018-10-04T12:04:46.313Z,99.99
2018-10-04T12:05:46.301Z,99.99
2018-10-04T12:06:46.393Z,99.99
2018-10-04T12:07:46.280Z,99.99
2018-10-04T12:08:46.009Z,99.99
2018-10-04T12:09:46.261Z,99.99
2018-10-04T12:10:46.252Z,99.99
2018-10-04T12:11:46.241Z,99.99
2018-10-04T12:12:46.279Z,99.99
2018-10-04T12:13:45.965Z,99.99
2018-10-04T12:14:46.225Z,99.99
2018-10-04T12:15:46.216Z,99.99
2018-10-04T12:16:46.205Z,99.99
2018-10-04T12:17:46.193Z,99.99
2018-10-04T12:18:46.438Z,99.99
2018-10-04T12:19:46.179Z,99.99
2018-10-04T12:20:46.166Z,99.99
2018-10-04T12:21:45.892Z,99.99
2018-10-04T12:22:45.884Z,99.99
2018-10-04T12:23:45.871Z,99.99
2018-10-04T12:24:46.275Z,99.99
2018-10-04T12:25:45.855Z,99.99
2018-10-04T12:26:45.846Z,99.99
2018-10-04T12:27:46.104Z,99.99
2018-10-04T12:28:46.146Z,99.99
2018-10-04T12:29:45.822Z,99.99
2018-10-04T12:30:46.303Z,99.99
2018-10-04T12:31:46.067Z,99.99
2018-10-04T12:32:46.061Z,99.99
2018-10-04T12:33:45.784Z,99.99
2018-10-04T12:34:46.043Z,99.99
2018-10-04T12:35:46.037Z,99.99
2018-10-04T12:36:46.035Z,99.99
2018-10-04T12:37:46.025Z,99.99
2018-10-04T12:38:45.749Z,99.99
2018-10-04T12:39:45.748Z,99.99
2018-10-04T12:40:45.988Z,99.99
2018-10-04T12:41:45.716Z,99.99
2018-10-04T12:42:45.982Z,99.99
2018-10-04T12:43:45.964Z,99.99
2018-10-04T12:44:45.954Z,99.99
2018-10-04T12:45:45.681Z,99.99
2018-10-04T12:46:45.674Z,99.99
2018-10-04T12:47:45.929Z,99.99
2018-10-04T12:48:45.657Z,99.99
2018-10-04T12:49:45.923Z,99.99
2018-10-04T12:50:45.913Z,99.99
2018-10-04T12:51:45.906Z,99.99
2018-10-04T12:52:45.626Z,99.99
2018-10-04T12:53:45.901Z,99.99
2018-10-04T12:54:45.875Z,99.99
2018-10-04T12:55:45.874Z,99.99